sensor_id;sensor_type;location;lat;lon;timestamp;P1;durP1;ratioP1;P2;durP2;ratioP2
54845;SDS011;53889;50.084;8.646;2023-07-16T00:01:53;5.90;;;3.15;;
54845;SDS011;53889;50.084;8.646;2023-07-16T00:04:20;5.10;;;3.33;;
54845;SDS011;53889;50.084;8.646;2023-07-16T00:06:47;4.80;;;3.28;;
54845;SDS011;53889;50.084;8.646;2023-07-16T00:09:15;6.25;;;3.42;;
54845;SDS011;53889;50.084;8.646;2023-07-16T00:11:43;4.60;;;3.10;;
54845;SDS011;53889;50.084;8.646;2023-07-16T00:14:10;6.05;;;3.45;;
54845;SDS011;53889;50.084;8.646;2023-07-16T00:16:37;6.38;;;3.50;;
54845;SDS011;53889;50.084;8.646;2023-07-16T00:19:04;8.18;;;3.63;;
54845;SDS011;53889;50.084;8.646;2023-07-16T00:21:31;5.78;;;3.33;;
54845;SDS011;53889;50.084;8.646;2023-07-16T00:23:58;6.72;;;3.20;;
54845;SDS011;53889;50.084;8.646;2023-07-16T00:26:26;4.93;;;3.30;;
54845;SDS011;53889;50.084;8.646;2023-07-16T00:28:53;4.93;;;2.80;;
54845;SDS011;53889;50.084;8.646;2023-07-16T00:31:20;6.05;;;2.83;;
54845;SDS011;53889;50.084;8.646;2023-07-16T00:33:47;6.25;;;3.17;;
54845;SDS011;53889;50.084;8.646;2023-07-16T00:36:14;4.60;;;3.08;;
54845;SDS011;53889;50.084;8.646;2023-07-16T00:38:41;8.48;;;3.25;;
54845;SDS011;53889;50.084;8.646;2023-07-16T00:41:08;4.68;;;2.88;;
54845;SDS011;53889;50.084;8.646;2023-07-16T00:43:36;5.45;;;2.78;;
54845;SDS011;53889;50.084;8.646;2023-07-16T00:46:03;6.25;;;3.03;;
54845;SDS011;53889;50.084;8.646;2023-07-16T00:48:30;3.63;;;2.75;;
54845;SDS011;53889;50.084;8.646;2023-07-16T00:50:57;6.20;;;2.80;;
54845;SDS011;53889;50.084;8.646;2023-07-16T00:53:26;4.03;;;2.22;;
54845;SDS011;53889;50.084;8.646;2023-07-16T00:55:53;5.28;;;2.45;;
54845;SDS011;53889;50.084;8.646;2023-07-16T00:58:20;6.18;;;2.20;;
54845;SDS011;53889;50.084;8.646;2023-07-16T01:00:48;5.85;;;2.50;;
54845;SDS011;53889;50.084;8.646;2023-07-16T01:03:15;3.95;;;2.40;;
54845;SDS011;53889;50.084;8.646;2023-07-16T01:05:44;4.68;;;2.50;;
54845;SDS011;53889;50.084;8.646;2023-07-16T01:08:18;4.55;;;2.40;;
54845;SDS011;53889;50.084;8.646;2023-07-16T01:10:48;3.80;;;2.00;;
54845;SDS011;53889;50.084;8.646;2023-07-16T01:13:15;5.10;;;2.55;;
54845;SDS011;53889;50.084;8.646;2023-07-16T01:15:43;4.40;;;2.60;;
54845;SDS011;53889;50.084;8.646;2023-07-16T01:18:11;4.78;;;2.30;;
54845;SDS011;53889;50.084;8.646;2023-07-16T01:20:38;4.20;;;2.13;;
54845;SDS011;53889;50.084;8.646;2023-07-16T01:23:13;4.43;;;2.40;;
54845;SDS011;53889;50.084;8.646;2023-07-16T01:25:56;4.05;;;2.25;;
54845;SDS011;53889;50.084;8.646;2023-07-16T01:28:38;3.47;;;2.13;;
54845;SDS011;53889;50.084;8.646;2023-07-16T01:31:21;4.10;;;2.17;;
54845;SDS011;53889;50.084;8.646;2023-07-16T01:33:49;4.10;;;2.45;;
54845;SDS011;53889;50.084;8.646;2023-07-16T01:36:17;3.85;;;2.00;;
54845;SDS011;53889;50.084;8.646;2023-07-16T01:38:45;4.07;;;2.20;;
54845;SDS011;53889;50.084;8.646;2023-07-16T01:41:13;4.25;;;2.17;;
54845;SDS011;53889;50.084;8.646;2023-07-16T01:43:40;4.63;;;2.38;;
54845;SDS011;53889;50.084;8.646;2023-07-16T01:46:07;3.50;;;2.22;;
54845;SDS011;53889;50.084;8.646;2023-07-16T01:48:37;3.97;;;2.13;;
54845;SDS011;53889;50.084;8.646;2023-07-16T01:51:04;3.63;;;2.00;;
54845;SDS011;53889;50.084;8.646;2023-07-16T01:53:31;3.95;;;2.38;;
54845;SDS011;53889;50.084;8.646;2023-07-16T01:55:58;5.72;;;2.10;;
54845;SDS011;53889;50.084;8.646;2023-07-16T01:58:27;5.00;;;2.58;;
54845;SDS011;53889;50.084;8.646;2023-07-16T02:00:54;3.05;;;1.98;;
54845;SDS011;53889;50.084;8.646;2023-07-16T02:03:21;3.55;;;2.03;;
54845;SDS011;53889;50.084;8.646;2023-07-16T02:05:49;4.55;;;2.22;;
54845;SDS011;53889;50.084;8.646;2023-07-16T02:08:16;4.18;;;1.98;;
54845;SDS011;53889;50.084;8.646;2023-07-16T02:10:42;4.68;;;1.92;;
54845;SDS011;53889;50.084;8.646;2023-07-16T02:13:10;4.15;;;1.95;;
54845;SDS011;53889;50.084;8.646;2023-07-16T02:15:37;5.93;;;2.38;;
54845;SDS011;53889;50.084;8.646;2023-07-16T02:18:04;5.20;;;2.03;;
54845;SDS011;53889;50.084;8.646;2023-07-16T02:20:34;6.32;;;2.00;;
54845;SDS011;53889;50.084;8.646;2023-07-16T02:23:02;5.30;;;1.90;;
54845;SDS011;53889;50.084;8.646;2023-07-16T02:25:28;4.88;;;2.10;;
54845;SDS011;53889;50.084;8.646;2023-07-16T02:27:55;3.88;;;1.88;;
54845;SDS011;53889;50.084;8.646;2023-07-16T02:30:22;4.65;;;1.75;;
54845;SDS011;53889;50.084;8.646;2023-07-16T02:32:49;4.47;;;2.00;;
54845;SDS011;53889;50.084;8.646;2023-07-16T02:35:16;3.35;;;2.00;;
54845;SDS011;53889;50.084;8.646;2023-07-16T02:37:43;4.38;;;1.88;;
54845;SDS011;53889;50.084;8.646;2023-07-16T02:40:12;4.30;;;2.10;;
54845;SDS011;53889;50.084;8.646;2023-07-16T02:42:41;4.88;;;1.98;;
54845;SDS011;53889;50.084;8.646;2023-07-16T02:45:08;5.68;;;2.30;;
54845;SDS011;53889;50.084;8.646;2023-07-16T02:47:35;5.93;;;2.08;;
54845;SDS011;53889;50.084;8.646;2023-07-16T02:50:02;4.93;;;2.03;;
54845;SDS011;53889;50.084;8.646;2023-07-16T02:52:30;4.50;;;2.40;;
54845;SDS011;53889;50.084;8.646;2023-07-16T02:54:57;4.50;;;2.17;;
54845;SDS011;53889;50.084;8.646;2023-07-16T02:57:26;5.30;;;1.92;;
54845;SDS011;53889;50.084;8.646;2023-07-16T02:59:52;5.97;;;2.25;;
54845;SDS011;53889;50.084;8.646;2023-07-16T03:02:19;5.25;;;2.05;;
54845;SDS011;53889;50.084;8.646;2023-07-16T03:04:46;5.90;;;2.60;;
54845;SDS011;53889;50.084;8.646;2023-07-16T03:07:13;5.85;;;2.47;;
54845;SDS011;53889;50.084;8.646;2023-07-16T03:09:40;6.95;;;2.50;;
54845;SDS011;53889;50.084;8.646;2023-07-16T03:12:07;6.00;;;2.33;;
54845;SDS011;53889;50.084;8.646;2023-07-16T03:14:36;4.45;;;2.20;;
54845;SDS011;53889;50.084;8.646;2023-07-16T03:17:03;3.55;;;2.30;;
54845;SDS011;53889;50.084;8.646;2023-07-16T03:19:32;3.53;;;2.30;;
54845;SDS011;53889;50.084;8.646;2023-07-16T03:21:59;5.70;;;2.88;;
54845;SDS011;53889;50.084;8.646;2023-07-16T03:24:26;5.68;;;2.63;;
54845;SDS011;53889;50.084;8.646;2023-07-16T03:26:54;4.28;;;2.30;;
54845;SDS011;53889;50.084;8.646;2023-07-16T03:29:21;5.30;;;2.58;;
54845;SDS011;53889;50.084;8.646;2023-07-16T03:31:50;6.18;;;2.40;;
54845;SDS011;53889;50.084;8.646;2023-07-16T03:34:18;6.45;;;2.58;;
54845;SDS011;53889;50.084;8.646;2023-07-16T03:36:45;6.30;;;2.85;;
54845;SDS011;53889;50.084;8.646;2023-07-16T03:39:12;5.05;;;2.47;;
54845;SDS011;53889;50.084;8.646;2023-07-16T03:41:38;6.35;;;2.60;;
54845;SDS011;53889;50.084;8.646;2023-07-16T03:44:05;7.68;;;2.60;;
54845;SDS011;53889;50.084;8.646;2023-07-16T03:46:35;5.13;;;2.42;;
54845;SDS011;53889;50.084;8.646;2023-07-16T03:49:03;6.72;;;2.70;;
54845;SDS011;53889;50.084;8.646;2023-07-16T03:51:33;7.25;;;2.70;;
54845;SDS011;53889;50.084;8.646;2023-07-16T03:54:00;5.32;;;2.42;;
54845;SDS011;53889;50.084;8.646;2023-07-16T03:56:27;5.32;;;2.50;;
54845;SDS011;53889;50.084;8.646;2023-07-16T03:58:54;6.85;;;2.60;;
54845;SDS011;53889;50.084;8.646;2023-07-16T04:01:21;6.65;;;2.28;;
54845;SDS011;53889;50.084;8.646;2023-07-16T04:03:48;6.75;;;2.92;;
54845;SDS011;53889;50.084;8.646;2023-07-16T04:06:16;5.82;;;2.70;;
54845;SDS011;53889;50.084;8.646;2023-07-16T04:08:43;5.03;;;2.40;;
54845;SDS011;53889;50.084;8.646;2023-07-16T04:11:10;5.30;;;2.25;;
54845;SDS011;53889;50.084;8.646;2023-07-16T04:13:37;5.88;;;2.45;;
54845;SDS011;53889;50.084;8.646;2023-07-16T04:16:04;7.30;;;2.40;;
54845;SDS011;53889;50.084;8.646;2023-07-16T04:18:31;4.50;;;2.38;;
54845;SDS011;53889;50.084;8.646;2023-07-16T04:20:58;7.85;;;2.60;;
54845;SDS011;53889;50.084;8.646;2023-07-16T04:23:26;4.45;;;2.20;;
54845;SDS011;53889;50.084;8.646;2023-07-16T04:25:53;8.05;;;2.30;;
54845;SDS011;53889;50.084;8.646;2023-07-16T04:28:21;6.10;;;2.42;;
54845;SDS011;53889;50.084;8.646;2023-07-16T04:30:48;6.22;;;2.33;;
54845;SDS011;53889;50.084;8.646;2023-07-16T04:33:15;4.90;;;2.47;;
54845;SDS011;53889;50.084;8.646;2023-07-16T04:35:42;5.05;;;2.10;;
54845;SDS011;53889;50.084;8.646;2023-07-16T04:38:08;5.93;;;2.00;;
54845;SDS011;53889;50.084;8.646;2023-07-16T04:40:36;5.35;;;2.20;;
54845;SDS011;53889;50.084;8.646;2023-07-16T04:43:03;4.32;;;1.70;;
54845;SDS011;53889;50.084;8.646;2023-07-16T04:45:30;5.90;;;1.65;;
54845;SDS011;53889;50.084;8.646;2023-07-16T04:47:57;5.50;;;2.20;;
54845;SDS011;53889;50.084;8.646;2023-07-16T04:50:24;5.88;;;2.03;;
54845;SDS011;53889;50.084;8.646;2023-07-16T04:52:51;6.53;;;1.90;;
54845;SDS011;53889;50.084;8.646;2023-07-16T04:55:17;6.20;;;1.92;;
54845;SDS011;53889;50.084;8.646;2023-07-16T04:57:46;5.85;;;1.80;;
54845;SDS011;53889;50.084;8.646;2023-07-16T05:00:13;6.75;;;1.85;;
54845;SDS011;53889;50.084;8.646;2023-07-16T05:02:40;4.75;;;1.70;;
54845;SDS011;53889;50.084;8.646;2023-07-16T05:05:07;4.22;;;1.83;;
54845;SDS011;53889;50.084;8.646;2023-07-16T05:07:34;5.40;;;1.67;;
54845;SDS011;53889;50.084;8.646;2023-07-16T05:10:01;4.78;;;1.80;;
54845;SDS011;53889;50.084;8.646;2023-07-16T05:12:28;7.15;;;2.30;;
54845;SDS011;53889;50.084;8.646;2023-07-16T05:14:57;6.20;;;2.10;;
54845;SDS011;53889;50.084;8.646;2023-07-16T05:17:23;4.60;;;2.17;;
54845;SDS011;53889;50.084;8.646;2023-07-16T05:19:50;7.75;;;2.22;;
54845;SDS011;53889;50.084;8.646;2023-07-16T05:22:17;6.13;;;2.20;;
54845;SDS011;53889;50.084;8.646;2023-07-16T05:24:48;5.07;;;2.17;;
54845;SDS011;53889;50.084;8.646;2023-07-16T05:27:15;5.43;;;2.03;;
54845;SDS011;53889;50.084;8.646;2023-07-16T05:29:41;5.78;;;1.90;;
54845;SDS011;53889;50.084;8.646;2023-07-16T05:32:10;5.22;;;1.60;;
54845;SDS011;53889;50.084;8.646;2023-07-16T05:34:37;5.97;;;2.10;;
54845;SDS011;53889;50.084;8.646;2023-07-16T05:37:04;6.53;;;1.98;;
54845;SDS011;53889;50.084;8.646;2023-07-16T05:39:31;6.22;;;2.00;;
54845;SDS011;53889;50.084;8.646;2023-07-16T05:41:58;7.07;;;2.10;;
54845;SDS011;53889;50.084;8.646;2023-07-16T05:44:27;5.90;;;1.98;;
54845;SDS011;53889;50.084;8.646;2023-07-16T05:46:54;6.50;;;1.92;;
54845;SDS011;53889;50.084;8.646;2023-07-16T05:49:22;5.65;;;2.20;;
54845;SDS011;53889;50.084;8.646;2023-07-16T05:51:50;5.28;;;1.75;;
54845;SDS011;53889;50.084;8.646;2023-07-16T05:54:17;5.47;;;1.98;;
54845;SDS011;53889;50.084;8.646;2023-07-16T05:56:44;5.15;;;1.75;;
54845;SDS011;53889;50.084;8.646;2023-07-16T05:59:11;5.05;;;1.70;;
54845;SDS011;53889;50.084;8.646;2023-07-16T06:01:37;4.03;;;1.58;;
54845;SDS011;53889;50.084;8.646;2023-07-16T06:04:04;6.28;;;1.88;;
54845;SDS011;53889;50.084;8.646;2023-07-16T06:06:32;5.25;;;1.77;;
54845;SDS011;53889;50.084;8.646;2023-07-16T06:08:59;4.50;;;1.38;;
54845;SDS011;53889;50.084;8.646;2023-07-16T06:11:26;6.68;;;1.75;;
54845;SDS011;53889;50.084;8.646;2023-07-16T06:13:53;5.00;;;1.70;;
54845;SDS011;53889;50.084;8.646;2023-07-16T06:16:20;5.25;;;1.88;;
54845;SDS011;53889;50.084;8.646;2023-07-16T06:18:47;6.13;;;2.00;;
54845;SDS011;53889;50.084;8.646;2023-07-16T06:21:14;4.43;;;1.63;;
54845;SDS011;53889;50.084;8.646;2023-07-16T06:23:42;7.13;;;1.70;;
54845;SDS011;53889;50.084;8.646;2023-07-16T06:26:09;6.25;;;1.75;;
54845;SDS011;53889;50.084;8.646;2023-07-16T06:28:36;4.45;;;1.60;;
54845;SDS011;53889;50.084;8.646;2023-07-16T06:31:03;4.55;;;1.58;;
54845;SDS011;53889;50.084;8.646;2023-07-16T06:33:29;7.65;;;1.60;;
54845;SDS011;53889;50.084;8.646;2023-07-16T06:35:56;5.82;;;1.85;;
54845;SDS011;53889;50.084;8.646;2023-07-16T06:38:23;5.75;;;1.70;;
54845;SDS011;53889;50.084;8.646;2023-07-16T06:40:51;5.38;;;1.83;;
54845;SDS011;53889;50.084;8.646;2023-07-16T06:43:21;5.80;;;2.03;;
54845;SDS011;53889;50.084;8.646;2023-07-16T06:45:48;7.07;;;1.90;;
54845;SDS011;53889;50.084;8.646;2023-07-16T06:48:16;5.70;;;1.90;;
54845;SDS011;53889;50.084;8.646;2023-07-16T06:50:43;5.10;;;1.58;;
54845;SDS011;53889;50.084;8.646;2023-07-16T06:53:10;5.38;;;1.92;;
54845;SDS011;53889;50.084;8.646;2023-07-16T06:55:37;6.07;;;1.90;;
54845;SDS011;53889;50.084;8.646;2023-07-16T06:58:09;5.68;;;2.05;;
54845;SDS011;53889;50.084;8.646;2023-07-16T07:00:37;5.47;;;2.10;;
54845;SDS011;53889;50.084;8.646;2023-07-16T07:03:03;4.65;;;1.67;;
54845;SDS011;53889;50.084;8.646;2023-07-16T07:05:30;4.43;;;1.58;;
54845;SDS011;53889;50.084;8.646;2023-07-16T07:07:57;6.97;;;1.90;;
54845;SDS011;53889;50.084;8.646;2023-07-16T07:10:24;5.63;;;2.00;;
54845;SDS011;53889;50.084;8.646;2023-07-16T07:12:50;4.90;;;1.70;;
54845;SDS011;53889;50.084;8.646;2023-07-16T07:15:18;5.28;;;2.03;;
54845;SDS011;53889;50.084;8.646;2023-07-16T07:17:45;8.43;;;2.25;;
54845;SDS011;53889;50.084;8.646;2023-07-16T07:20:14;5.93;;;1.88;;
54845;SDS011;53889;50.084;8.646;2023-07-16T07:22:40;9.32;;;2.20;;
54845;SDS011;53889;50.084;8.646;2023-07-16T07:25:07;4.57;;;2.03;;
54845;SDS011;53889;50.084;8.646;2023-07-16T07:27:34;5.40;;;2.17;;
54845;SDS011;53889;50.084;8.646;2023-07-16T07:30:01;6.10;;;1.92;;
54845;SDS011;53889;50.084;8.646;2023-07-16T07:32:29;7.47;;;2.17;;
54845;SDS011;53889;50.084;8.646;2023-07-16T07:34:56;5.95;;;2.22;;
54845;SDS011;53889;50.084;8.646;2023-07-16T07:37:23;6.47;;;2.17;;
54845;SDS011;53889;50.084;8.646;2023-07-16T07:39:51;5.95;;;2.13;;
54845;SDS011;53889;50.084;8.646;2023-07-16T07:42:18;6.68;;;2.05;;
54845;SDS011;53889;50.084;8.646;2023-07-16T07:44:47;5.07;;;2.05;;
54845;SDS011;53889;50.084;8.646;2023-07-16T07:47:14;11.23;;;2.00;;
54845;SDS011;53889;50.084;8.646;2023-07-16T07:49:42;4.38;;;1.98;;
54845;SDS011;53889;50.084;8.646;2023-07-16T07:52:09;4.95;;;2.00;;
54845;SDS011;53889;50.084;8.646;2023-07-16T07:54:36;6.13;;;2.05;;
54845;SDS011;53889;50.084;8.646;2023-07-16T07:57:03;5.72;;;1.95;;
54845;SDS011;53889;50.084;8.646;2023-07-16T07:59:31;6.10;;;1.90;;
54845;SDS011;53889;50.084;8.646;2023-07-16T08:01:58;6.45;;;2.10;;
54845;SDS011;53889;50.084;8.646;2023-07-16T08:04:26;5.15;;;1.95;;
54845;SDS011;53889;50.084;8.646;2023-07-16T08:06:54;6.75;;;2.05;;
54845;SDS011;53889;50.084;8.646;2023-07-16T08:09:21;5.53;;;2.00;;
54845;SDS011;53889;50.084;8.646;2023-07-16T08:11:48;4.30;;;1.80;;
54845;SDS011;53889;50.084;8.646;2023-07-16T08:14:15;5.32;;;2.00;;
54845;SDS011;53889;50.084;8.646;2023-07-16T08:16:41;4.53;;;1.73;;
54845;SDS011;53889;50.084;8.646;2023-07-16T08:19:08;6.07;;;1.80;;
54845;SDS011;53889;50.084;8.646;2023-07-16T08:21:36;4.88;;;1.77;;
54845;SDS011;53889;50.084;8.646;2023-07-16T08:24:06;5.30;;;2.15;;
54845;SDS011;53889;50.084;8.646;2023-07-16T08:26:33;5.38;;;1.90;;
54845;SDS011;53889;50.084;8.646;2023-07-16T08:28:59;8.45;;;2.30;;
54845;SDS011;53889;50.084;8.646;2023-07-16T08:31:27;5.30;;;2.00;;
54845;SDS011;53889;50.084;8.646;2023-07-16T08:33:54;5.53;;;1.88;;
54845;SDS011;53889;50.084;8.646;2023-07-16T08:36:21;4.63;;;2.15;;
54845;SDS011;53889;50.084;8.646;2023-07-16T08:38:48;4.10;;;2.08;;
54845;SDS011;53889;50.084;8.646;2023-07-16T08:41:16;5.18;;;2.05;;
54845;SDS011;53889;50.084;8.646;2023-07-16T08:43:45;7.53;;;2.22;;
54845;SDS011;53889;50.084;8.646;2023-07-16T08:46:13;5.40;;;1.90;;
54845;SDS011;53889;50.084;8.646;2023-07-16T08:48:41;5.63;;;2.45;;
54845;SDS011;53889;50.084;8.646;2023-07-16T08:51:08;4.63;;;1.80;;
54845;SDS011;53889;50.084;8.646;2023-07-16T08:53:36;5.70;;;1.77;;
54845;SDS011;53889;50.084;8.646;2023-07-16T08:56:03;7.15;;;2.00;;
54845;SDS011;53889;50.084;8.646;2023-07-16T08:58:32;4.35;;;1.75;;
54845;SDS011;53889;50.084;8.646;2023-07-16T09:00:59;4.60;;;2.55;;
54845;SDS011;53889;50.084;8.646;2023-07-16T09:03:26;7.75;;;2.80;;
54845;SDS011;53889;50.084;8.646;2023-07-16T09:05:53;6.30;;;2.30;;
54845;SDS011;53889;50.084;8.646;2023-07-16T09:08:20;6.80;;;2.50;;
54845;SDS011;53889;50.084;8.646;2023-07-16T09:10:53;7.30;;;3.72;;
54845;SDS011;53889;50.084;8.646;2023-07-16T09:13:21;8.55;;;5.13;;
54845;SDS011;53889;50.084;8.646;2023-07-16T09:15:53;8.00;;;2.63;;
54845;SDS011;53889;50.084;8.646;2023-07-16T09:18:20;6.38;;;2.42;;
54845;SDS011;53889;50.084;8.646;2023-07-16T09:20:47;5.30;;;2.00;;
54845;SDS011;53889;50.084;8.646;2023-07-16T09:23:16;4.45;;;1.83;;
54845;SDS011;53889;50.084;8.646;2023-07-16T09:25:44;4.95;;;1.70;;
54845;SDS011;53889;50.084;8.646;2023-07-16T09:28:11;5.10;;;1.90;;
54845;SDS011;53889;50.084;8.646;2023-07-16T09:30:38;4.32;;;1.70;;
54845;SDS011;53889;50.084;8.646;2023-07-16T09:33:13;4.80;;;1.75;;
54845;SDS011;53889;50.084;8.646;2023-07-16T09:35:41;6.63;;;1.90;;
54845;SDS011;53889;50.084;8.646;2023-07-16T09:38:07;6.53;;;1.85;;
54845;SDS011;53889;50.084;8.646;2023-07-16T09:40:35;5.47;;;1.80;;
54845;SDS011;53889;50.084;8.646;2023-07-16T09:43:02;5.22;;;1.80;;
54845;SDS011;53889;50.084;8.646;2023-07-16T09:45:30;4.18;;;1.90;;
54845;SDS011;53889;50.084;8.646;2023-07-16T09:47:57;4.72;;;1.80;;
54845;SDS011;53889;50.084;8.646;2023-07-16T09:50:25;4.65;;;2.20;;
54845;SDS011;53889;50.084;8.646;2023-07-16T09:52:54;7.00;;;1.80;;
54845;SDS011;53889;50.084;8.646;2023-07-16T09:55:22;6.40;;;1.80;;
54845;SDS011;53889;50.084;8.646;2023-07-16T09:57:50;4.82;;;2.03;;
54845;SDS011;53889;50.084;8.646;2023-07-16T10:00:19;8.60;;;1.90;;
54845;SDS011;53889;50.084;8.646;2023-07-16T10:02:49;4.20;;;1.83;;
54845;SDS011;53889;50.084;8.646;2023-07-16T10:05:17;4.05;;;1.70;;
54845;SDS011;53889;50.084;8.646;2023-07-16T10:07:50;4.50;;;1.73;;
54845;SDS011;53889;50.084;8.646;2023-07-16T10:10:17;4.40;;;1.80;;
54845;SDS011;53889;50.084;8.646;2023-07-16T10:12:54;6.10;;;2.10;;
54845;SDS011;53889;50.084;8.646;2023-07-16T10:15:24;5.63;;;1.80;;
54845;SDS011;53889;50.084;8.646;2023-07-16T10:17:53;5.15;;;1.73;;
54845;SDS011;53889;50.084;8.646;2023-07-16T10:20:27;3.72;;;2.00;;
54845;SDS011;53889;50.084;8.646;2023-07-16T10:22:56;5.80;;;1.95;;
54845;SDS011;53889;50.084;8.646;2023-07-16T10:25:24;5.65;;;2.10;;
54845;SDS011;53889;50.084;8.646;2023-07-16T10:27:53;10.35;;;2.33;;
54845;SDS011;53889;50.084;8.646;2023-07-16T10:30:20;5.35;;;1.80;;
54845;SDS011;53889;50.084;8.646;2023-07-16T10:32:50;3.95;;;1.80;;
54845;SDS011;53889;50.084;8.646;2023-07-16T10:35:18;6.22;;;1.90;;
54845;SDS011;53889;50.084;8.646;2023-07-16T10:37:45;4.03;;;2.00;;
54845;SDS011;53889;50.084;8.646;2023-07-16T10:40:14;4.78;;;1.70;;
54845;SDS011;53889;50.084;8.646;2023-07-16T10:42:42;6.80;;;2.00;;
54845;SDS011;53889;50.084;8.646;2023-07-16T10:45:11;3.78;;;1.98;;
54845;SDS011;53889;50.084;8.646;2023-07-16T10:47:40;5.25;;;1.73;;
54845;SDS011;53889;50.084;8.646;2023-07-16T10:50:18;5.72;;;1.90;;
54845;SDS011;53889;50.084;8.646;2023-07-16T10:52:45;4.55;;;1.70;;
54845;SDS011;53889;50.084;8.646;2023-07-16T10:55:12;4.75;;;1.60;;
54845;SDS011;53889;50.084;8.646;2023-07-16T10:57:40;9.18;;;2.17;;
54845;SDS011;53889;50.084;8.646;2023-07-16T11:00:09;4.28;;;1.58;;
54845;SDS011;53889;50.084;8.646;2023-07-16T11:02:38;4.45;;;1.60;;
54845;SDS011;53889;50.084;8.646;2023-07-16T11:05:09;3.30;;;1.52;;
54845;SDS011;53889;50.084;8.646;2023-07-16T11:07:36;5.32;;;1.90;;
54845;SDS011;53889;50.084;8.646;2023-07-16T11:10:03;3.55;;;1.70;;
54845;SDS011;53889;50.084;8.646;2023-07-16T11:12:31;5.60;;;1.90;;
54845;SDS011;53889;50.084;8.646;2023-07-16T11:14:59;5.20;;;1.90;;
54845;SDS011;53889;50.084;8.646;2023-07-16T11:17:27;3.70;;;1.55;;
54845;SDS011;53889;50.084;8.646;2023-07-16T11:19:53;5.82;;;1.92;;
54845;SDS011;53889;50.084;8.646;2023-07-16T11:22:24;6.13;;;2.00;;
54845;SDS011;53889;50.084;8.646;2023-07-16T11:24:51;5.60;;;1.60;;
54845;SDS011;53889;50.084;8.646;2023-07-16T11:27:19;3.85;;;1.65;;
54845;SDS011;53889;50.084;8.646;2023-07-16T11:29:47;6.78;;;1.67;;
54845;SDS011;53889;50.084;8.646;2023-07-16T11:32:25;3.45;;;1.70;;
54845;SDS011;53889;50.084;8.646;2023-07-16T11:34:52;8.68;;;1.60;;
54845;SDS011;53889;50.084;8.646;2023-07-16T11:37:19;3.20;;;1.40;;
54845;SDS011;53889;50.084;8.646;2023-07-16T11:39:47;4.65;;;1.80;;
54845;SDS011;53889;50.084;8.646;2023-07-16T11:42:14;5.40;;;1.85;;
54845;SDS011;53889;50.084;8.646;2023-07-16T11:44:48;4.53;;;1.55;;
54845;SDS011;53889;50.084;8.646;2023-07-16T11:47:17;5.72;;;1.75;;
54845;SDS011;53889;50.084;8.646;2023-07-16T11:49:44;4.40;;;1.90;;
54845;SDS011;53889;50.084;8.646;2023-07-16T11:52:10;3.63;;;1.55;;
54845;SDS011;53889;50.084;8.646;2023-07-16T11:54:37;4.43;;;1.60;;
54845;SDS011;53889;50.084;8.646;2023-07-16T11:57:04;5.20;;;1.90;;
54845;SDS011;53889;50.084;8.646;2023-07-16T11:59:31;4.95;;;1.90;;
54845;SDS011;53889;50.084;8.646;2023-07-16T12:01:58;4.50;;;1.83;;
54845;SDS011;53889;50.084;8.646;2023-07-16T12:04:26;4.85;;;1.92;;
54845;SDS011;53889;50.084;8.646;2023-07-16T12:06:54;3.83;;;1.75;;
54845;SDS011;53889;50.084;8.646;2023-07-16T12:09:20;6.47;;;1.90;;
54845;SDS011;53889;50.084;8.646;2023-07-16T12:11:47;5.10;;;1.70;;
54845;SDS011;53889;50.084;8.646;2023-07-16T12:14:14;4.38;;;1.60;;
54845;SDS011;53889;50.084;8.646;2023-07-16T12:16:40;3.80;;;1.70;;
54845;SDS011;53889;50.084;8.646;2023-07-16T12:19:08;5.07;;;2.67;;
54845;SDS011;53889;50.084;8.646;2023-07-16T12:21:36;3.10;;;1.67;;
54845;SDS011;53889;50.084;8.646;2023-07-16T12:24:03;4.85;;;2.05;;
54845;SDS011;53889;50.084;8.646;2023-07-16T12:26:31;4.32;;;1.75;;
54845;SDS011;53889;50.084;8.646;2023-07-16T12:28:58;4.65;;;1.75;;
54845;SDS011;53889;50.084;8.646;2023-07-16T12:31:27;4.60;;;1.75;;
54845;SDS011;53889;50.084;8.646;2023-07-16T12:33:54;4.00;;;2.00;;
54845;SDS011;53889;50.084;8.646;2023-07-16T12:36:21;4.47;;;2.30;;
54845;SDS011;53889;50.084;8.646;2023-07-16T12:38:49;5.15;;;2.15;;
54845;SDS011;53889;50.084;8.646;2023-07-16T12:41:16;4.30;;;2.17;;
54845;SDS011;53889;50.084;8.646;2023-07-16T12:43:42;4.88;;;1.90;;
54845;SDS011;53889;50.084;8.646;2023-07-16T12:46:09;4.60;;;1.88;;
54845;SDS011;53889;50.084;8.646;2023-07-16T12:48:36;5.20;;;1.90;;
54845;SDS011;53889;50.084;8.646;2023-07-16T12:51:02;3.75;;;1.83;;
54845;SDS011;53889;50.084;8.646;2023-07-16T12:53:29;4.88;;;2.17;;
54845;SDS011;53889;50.084;8.646;2023-07-16T12:55:57;6.03;;;2.20;;
54845;SDS011;53889;50.084;8.646;2023-07-16T12:58:24;3.47;;;1.88;;
54845;SDS011;53889;50.084;8.646;2023-07-16T13:00:50;4.10;;;1.90;;
54845;SDS011;53889;50.084;8.646;2023-07-16T13:03:17;5.68;;;1.98;;
54845;SDS011;53889;50.084;8.646;2023-07-16T13:05:44;5.05;;;2.28;;
54845;SDS011;53889;50.084;8.646;2023-07-16T13:08:12;4.03;;;1.90;;
54845;SDS011;53889;50.084;8.646;2023-07-16T13:10:39;3.53;;;2.00;;
54845;SDS011;53889;50.084;8.646;2023-07-16T13:13:08;3.83;;;1.73;;
54845;SDS011;53889;50.084;8.646;2023-07-16T13:15:35;5.90;;;2.40;;
54845;SDS011;53889;50.084;8.646;2023-07-16T13:18:02;5.00;;;2.60;;
54845;SDS011;53889;50.084;8.646;2023-07-16T13:20:28;5.55;;;2.45;;
54845;SDS011;53889;50.084;8.646;2023-07-16T13:22:55;4.05;;;2.63;;
54845;SDS011;53889;50.084;8.646;2023-07-16T13:25:22;5.07;;;2.20;;
54845;SDS011;53889;50.084;8.646;2023-07-16T13:27:49;5.15;;;2.33;;
54845;SDS011;53889;50.084;8.646;2023-07-16T13:30:19;5.15;;;2.30;;
54845;SDS011;53889;50.084;8.646;2023-07-16T13:32:46;3.63;;;2.00;;
54845;SDS011;53889;50.084;8.646;2023-07-16T13:35:14;4.40;;;2.40;;
54845;SDS011;53889;50.084;8.646;2023-07-16T13:37:41;6.18;;;2.88;;
54845;SDS011;53889;50.084;8.646;2023-07-16T13:40:08;6.03;;;2.88;;
54845;SDS011;53889;50.084;8.646;2023-07-16T13:42:35;6.03;;;2.92;;
54845;SDS011;53889;50.084;8.646;2023-07-16T13:45:02;6.05;;;3.03;;
54845;SDS011;53889;50.084;8.646;2023-07-16T13:47:31;5.95;;;2.90;;
54845;SDS011;53889;50.084;8.646;2023-07-16T13:49:58;6.30;;;2.70;;
54845;SDS011;53889;50.084;8.646;2023-07-16T13:52:24;4.82;;;2.50;;
54845;SDS011;53889;50.084;8.646;2023-07-16T13:54:51;5.18;;;2.70;;
54845;SDS011;53889;50.084;8.646;2023-07-16T13:57:18;4.85;;;2.60;;
54845;SDS011;53889;50.084;8.646;2023-07-16T13:59:45;7.30;;;3.03;;
54845;SDS011;53889;50.084;8.646;2023-07-16T14:02:12;6.88;;;2.97;;
54845;SDS011;53889;50.084;8.646;2023-07-16T14:04:40;5.25;;;2.63;;
54845;SDS011;53889;50.084;8.646;2023-07-16T14:07:06;5.97;;;2.83;;
54845;SDS011;53889;50.084;8.646;2023-07-16T14:09:33;5.85;;;2.65;;
54845;SDS011;53889;50.084;8.646;2023-07-16T14:12:00;5.10;;;2.78;;
54845;SDS011;53889;50.084;8.646;2023-07-16T14:14:28;5.38;;;2.60;;
54845;SDS011;53889;50.084;8.646;2023-07-16T14:16:54;5.88;;;3.10;;
54845;SDS011;53889;50.084;8.646;2023-07-16T14:19:21;4.47;;;2.67;;
54845;SDS011;53889;50.084;8.646;2023-07-16T14:21:49;6.38;;;2.97;;
54845;SDS011;53889;50.084;8.646;2023-07-16T14:24:16;4.55;;;2.65;;
54845;SDS011;53889;50.084;8.646;2023-07-16T14:26:43;5.30;;;2.53;;
54845;SDS011;53889;50.084;8.646;2023-07-16T14:29:09;7.18;;;3.05;;
54845;SDS011;53889;50.084;8.646;2023-07-16T14:31:37;4.43;;;2.60;;
54845;SDS011;53889;50.084;8.646;2023-07-16T14:34:04;5.38;;;3.08;;
54845;SDS011;53889;50.084;8.646;2023-07-16T14:36:30;5.15;;;3.17;;
54845;SDS011;53889;50.084;8.646;2023-07-16T14:38:59;6.82;;;2.97;;
54845;SDS011;53889;50.084;8.646;2023-07-16T14:41:25;6.30;;;2.92;;
54845;SDS011;53889;50.084;8.646;2023-07-16T14:43:52;6.03;;;3.05;;
54845;SDS011;53889;50.084;8.646;2023-07-16T14:46:19;7.35;;;2.78;;
54845;SDS011;53889;50.084;8.646;2023-07-16T14:48:45;5.45;;;3.10;;
54845;SDS011;53889;50.084;8.646;2023-07-16T14:51:12;5.18;;;2.95;;